Time;durP1;ratioP1;P1;durP2;ratioP2;P2;SDS_P1;SDS_P2;PMS_P1;PMS_P2;Temp;Humidity;BMP_temperature;BMP_pressure;BME280_temperature;BME280_humidity;BME280_pressure;Samples;Min_cycle;Max_cycle;Signal;HPM_P1;HPM_P2
2022/04/08 00:01:59;;;;;;;6.80;1.70;;;;;;;4.60;100.00;98223.67;104810;1274;61253;-75
2022/04/08 00:04:30;;;;;;;2.70;0.80;;;;;;;4.59;100.00;98230.75;104938;1274;74873;-75
2022/04/08 00:06:57;;;;;;;3.50;1.00;;;;;;;4.62;100.00;98230.23;104897;1272;71407;-75
2022/04/08 00:09:23;;;;;;;3.30;0.80;;;;;;;4.63;100.00;98235.48;104944;1274;61101;-75
2022/04/08 00:11:50;;;;;;;3.30;1.20;;;;;;;4.65;100.00;98234.44;104818;1274;61862;-75
2022/04/08 00:14:21;;;;;;;1.60;0.60;;;;;;;4.65;100.00;98243.45;104995;1273;61283;-75
2022/04/08 00:16:47;;;;;;;4.70;1.20;;;;;;;4.69;100.00;98246.29;104922;1273;75785;-75
2022/04/08 00:19:15;;;;;;;1.20;0.70;;;;;;;4.69;100.00;98251.59;104962;1273;70126;-78
2022/04/08 00:21:42;;;;;;;3.10;0.60;;;;;;;4.68;100.00;98251.17;104941;1274;72943;-79
2022/04/08 00:24:09;;;;;;;2.40;0.70;;;;;;;4.68;100.00;98261.27;104926;1274;61148;-76
2022/04/08 00:26:41;;;;;;;1.00;0.50;;;;;;;4.68;100.00;98256.98;104845;1276;61429;-76
2022/04/08 00:29:08;;;;;;;2.00;0.80;;;;;;;4.64;100.00;98255.69;104865;1274;75992;-76
2022/04/08 00:31:35;;;;;;;3.70;0.80;;;;;;;4.61;99.99;98258.34;104935;1273;72467;-76
2022/04/08 00:34:02;;;;;;;3.10;0.80;;;;;;;4.61;99.86;98275.95;104832;1274;73106;-74
2022/04/08 00:36:29;;;;;;;1.90;0.50;;;;;;;4.60;99.33;98268.63;104968;1274;62519;-76
2022/04/08 00:38:55;;;;;;;3.90;0.80;;;;;;;4.58;99.03;98269.07;105047;1273;61142;-74
2022/04/08 00:41:22;;;;;;;3.50;0.50;;;;;;;4.59;98.79;98276.30;104863;1277;76168;-75
2022/04/08 00:43:48;;;;;;;3.30;0.80;;;;;;;4.60;98.56;98293.13;104782;1274;71422;-75
2022/04/08 00:46:15;;;;;;;2.60;0.70;;;;;;;4.64;97.93;98295.92;104939;1273;74057;-76
2022/04/08 00:48:42;;;;;;;3.80;0.70;;;;;;;4.67;97.46;98298.52;104947;1274;62218;-77
2022/04/08 00:51:10;;;;;;;1.90;0.60;;;;;;;4.69;97.12;98299.34;104991;1273;61332;-77
2022/04/08 00:53:38;;;;;;;1.50;0.50;;;;;;;4.73;96.31;98327.76;104982;1274;74986;-75
2022/04/08 00:56:06;;;;;;;1.10;0.30;;;;;;;4.79;95.73;98332.11;104932;1274;71393;-76
2022/04/08 00:58:36;;;;;;;1.20;0.60;;;;;;;4.83;95.67;98329.58;104937;1273;73025;-75
2022/04/08 01:01:03;;;;;;;3.60;0.70;;;;;;;4.85;95.87;98335.12;104976;1273;61598;-75
2022/04/08 01:03:32;;;;;;;1.30;0.40;;;;;;;4.87;96.15;98351.46;104975;1274;61274;-75
2022/04/08 01:05:58;;;;;;;5.60;0.70;;;;;;;4.84;97.34;98343.48;104921;1274;76014;-75
2022/04/08 01:08:25;;;;;;;3.00;0.70;;;;;;;4.78;98.99;98359.21;104944;1274;71406;-73
2022/04/08 01:10:54;;;;;;;1.50;0.50;;;;;;;4.70;100.00;98362.61;104929;1274;72686;-71
2022/04/08 01:13:22;;;;;;;1.60;0.50;;;;;;;4.63;100.00;98364.68;104959;1274;61391;-75
2022/04/08 01:15:49;;;;;;;3.90;0.80;;;;;;;4.58;100.00;98364.48;104852;1274;61782;-77
2022/04/08 01:18:16;;;;;;;0.60;0.40;;;;;;;4.54;100.00;98360.77;104913;1274;74945;-75
2022/04/08 01:20:44;;;;;;;5.20;1.90;;;;;;;4.52;100.00;98371.27;104784;1274;71577;-76
2022/04/08 01:23:12;;;;;;;2.00;0.60;;;;;;;4.52;100.00;98371.80;104815;1274;73550;-76
2022/04/08 01:25:38;;;;;;;4.30;0.90;;;;;;;4.53;100.00;98393.13;104956;1274;61406;-75
2022/04/08 01:28:05;;;;;;;3.30;0.90;;;;;;;4.57;100.00;98395.13;104800;1274;61193;-75
2022/04/08 01:30:32;;;;;;;4.60;0.90;;;;;;;4.60;100.00;98402.02;104764;1274;75622;-78
2022/04/08 01:32:59;;;;;;;1.80;0.80;;;;;;;4.64;100.00;98421.84;104936;1273;72507;-76
2022/04/08 01:35:25;;;;;;;3.10;0.90;;;;;;;4.67;100.00;98404.89;104881;1273;72997;-76
2022/04/08 01:37:52;;;;;;;8.10;1.40;;;;;;;4.68;100.00;98406.43;104765;1274;61314;-76
2022/04/08 01:40:19;;;;;;;4.30;0.70;;;;;;;4.69;100.00;98417.23;104750;1276;61252;-75
2022/04/08 01:42:46;;;;;;;3.30;1.80;;;;;;;4.69;100.00;98417.34;104905;1273;74898;-76
2022/04/08 01:45:13;;;;;;;4.70;1.20;;;;;;;4.69;100.00;98412.45;104892;1273;71394;-75
2022/04/08 01:47:40;;;;;;;2.90;0.80;;;;;;;4.69;100.00;98420.99;104800;1276;73741;-76
2022/04/08 01:50:07;;;;;;;4.40;0.90;;;;;;;4.68;100.00;98434.60;104951;1273;61504;-74
2022/04/08 01:52:34;;;;;;;1.60;0.80;;;;;;;4.68;100.00;98442.64;105012;1273;61479;-77
2022/04/08 01:55:01;;;;;;;4.40;0.70;;;;;;;4.69;100.00;98441.06;104836;1274;74938;-74
2022/04/08 01:57:29;;;;;;;0.40;0.40;;;;;;;4.68;100.00;98442.69;105046;1273;72360;-77
2022/04/08 01:59:56;;;;;;;4.50;0.90;;;;;;;4.68;100.00;98460.25;104969;1274;73016;-76
2022/04/08 02:02:28;;;;;;;2.60;1.10;;;;;;;4.70;99.97;98459.27;104972;1273;62240;-75
2022/04/08 02:04:54;;;;;;;2.50;0.80;;;;;;;4.70;99.09;98478.52;105021;1273;61148;-74
2022/04/08 02:07:21;;;;;;;3.90;1.20;;;;;;;4.73;98.21;98486.46;104970;1273;75810;-77
2022/04/08 02:09:48;;;;;;;4.60;1.20;;;;;;;4.72;98.35;98483.52;104949;1273;71086;-77
2022/04/08 02:12:15;;;;;;;3.50;1.10;;;;;;;4.68;98.28;98490.80;104886;1273;72757;-79
2022/04/08 02:14:41;;;;;;;3.00;0.70;;;;;;;4.66;98.37;98505.52;104920;1273;61300;-76
2022/04/08 02:17:08;;;;;;;3.20;1.10;;;;;;;4.64;97.38;98511.17;104799;1274;61730;-78
2022/04/08 02:19:36;;;;;;;4.20;1.40;;;;;;;4.62;96.88;98514.42;104929;1274;61481;-77
2022/04/08 02:22:03;;;;;;;2.20;0.70;;;;;;;4.61;96.14;98519.69;105000;1274;71056;-74
2022/04/08 02:24:30;;;;;;;4.50;1.10;;;;;;;4.61;95.83;98526.09;104962;1274;72984;-81
2022/04/08 02:26:57;;;;;;;4.70;1.40;;;;;;;4.60;96.02;98530.24;104780;1274;61479;-78
2022/04/08 02:29:24;;;;;;;4.60;0.90;;;;;;;4.58;95.63;98538.95;104804;1275;61252;-75
2022/04/08 02:31:59;;;;;;;3.10;0.90;;;;;;;4.56;95.96;98539.42;104931;1273;75990;-79
2022/04/08 02:34:26;;;;;;;5.90;2.70;;;;;;;4.53;95.79;98555.40;105082;1273;71345;-75
2022/04/08 02:36:52;;;;;;;3.10;1.00;;;;;;;4.51;95.45;98557.80;104989;1273;62161;-80
2022/04/08 02:39:19;;;;;;;3.70;1.00;;;;;;;4.48;95.30;98564.20;104982;1273;62834;-78
2022/04/08 02:41:46;;;;;;;3.80;1.50;;;;;;;4.44;95.36;98566.95;104973;1274;61331;-78
2022/04/08 02:44:13;;;;;;;4.60;1.20;;;;;;;4.40;95.52;98573.73;105015;1273;74647;-75
2022/04/08 02:46:40;;;;;;;3.60;1.10;;;;;;;4.37;95.03;98576.61;104999;1273;72777;-84
2022/04/08 02:49:07;;;;;;;4.30;0.90;;;;;;;4.35;94.91;98581.77;105055;1273;72917;-79
2022/04/08 02:51:33;;;;;;;4.80;1.50;;;;;;;4.34;95.47;98581.02;102883;1273;2947009;-80
2022/04/08 02:54:00;;;;;;;2.80;1.10;;;;;;;4.32;95.01;98580.93;104972;1273;62369;-79
2022/04/08 02:56:27;;;;;;;2.10;0.70;;;;;;;4.29;95.36;98591.40;105122;1274;61341;-77
2022/04/08 02:58:54;;;;;;;3.20;1.30;;;;;;;4.27;95.64;98596.86;104930;1273;72422;-77
2022/04/08 03:01:21;;;;;;;2.60;0.60;;;;;;;4.26;95.52;98601.66;104928;1273;73015;-79
2022/04/08 03:03:47;;;;;;;1.50;0.80;;;;;;;4.26;95.93;98605.41;104965;1273;61374;-73
2022/04/08 03:06:17;;;;;;;6.30;1.70;;;;;;;4.24;96.48;98606.55;105010;1274;61243;-78
2022/04/08 03:08:44;;;;;;;5.00;0.80;;;;;;;4.22;96.52;98613.92;104966;1273;74796;-80
2022/04/08 03:11:16;;;;;;;4.70;1.10;;;;;;;4.19;97.20;98614.17;104954;1274;71281;-75
2022/04/08 03:13:43;;;;;;;5.40;1.10;;;;;;;4.16;97.86;98620.20;104963;1273;61266;-78
2022/04/08 03:16:10;;;;;;;4.60;1.20;;;;;;;4.16;97.46;98635.38;104952;1273;62457;-79
2022/04/08 03:18:37;;;;;;;4.40;1.30;;;;;;;4.17;96.52;98639.15;105040;1273;61234;-77
2022/04/08 03:21:21;;;;;;;4.10;1.30;;;;;;;4.19;96.34;98640.90;104994;1274;76496;-76
2022/04/08 03:23:48;;;;;;;2.60;1.20;;;;;;;4.19;96.30;98642.77;104954;1274;72526;-78
2022/04/08 03:26:16;;;;;;;7.10;1.60;;;;;;;4.21;96.00;98660.79;104799;1274;71755;-79
2022/04/08 03:28:46;;;;;;;7.30;1.10;;;;;;;4.22;95.47;98660.07;105084;1274;61355;-76
2022/04/08 03:31:13;;;;;;;8.00;1.30;;;;;;;4.23;95.35;98660.85;104815;1274;61329;-79
2022/04/08 03:33:40;;;;;;;4.90;2.10;;;;;;;4.23;95.44;98670.06;105004;1273;75479;-77
2022/04/08 03:36:07;;;;;;;2.80;1.60;;;;;;;4.24;94.80;98689.04;104953;1274;71381;-79
2022/04/08 03:38:34;;;;;;;4.50;0.80;;;;;;;4.25;94.10;98670.20;104831;1274;74004;-74
2022/04/08 03:41:01;;;;;;;2.80;0.60;;;;;;;4.25;94.34;98685.27;105004;1273;62854;-80
2022/04/08 03:43:37;;;;;;;4.10;1.10;;;;;;;4.25;94.12;98677.07;105071;1274;61211;-77
2022/04/08 03:46:06;;;;;;;3.30;0.80;;;;;;;4.26;94.28;98670.66;104980;1274;76009;-76
2022/04/08 03:48:35;;;;;;;3.00;1.10;;;;;;;4.25;94.39;98675.88;104955;1274;71372;-76
2022/04/08 03:51:02;;;;;;;5.70;1.00;;;;;;;4.23;94.49;98674.80;105003;1274;74724;-76
2022/04/08 03:53:34;;;;;;;4.20;1.10;;;;;;;4.24;94.38;98673.86;105035;1274;62526;-75
2022/04/08 03:56:02;;;;;;;5.20;1.10;;;;;;;4.23;94.43;98670.62;104800;1275;61869;-78
2022/04/08 03:58:39;;;;;;;3.00;1.10;;;;;;;4.21;94.72;98672.80;104983;1273;75098;-77
2022/04/08 04:01:19;;;;;;;5.30;0.90;;;;;;;4.21;95.03;98683.70;105020;1274;71369;-78
2022/04/08 04:03:46;;;;;;;2.80;1.20;;;;;;;4.20;95.75;98691.84;105013;1274;72947;-76
2022/04/08 04:06:16;;;;;;;1.70;0.80;;;;;;;4.18;96.01;98686.64;104732;1274;61356;-80
2022/04/08 04:08:43;;;;;;;3.90;1.20;;;;;;;4.16;96.24;98693.35;105036;1273;61217;-74
2022/04/08 04:11:16;;;;;;;2.30;0.80;;;;;;;4.14;97.15;98699.45;104995;1274;74907;-78
2022/04/08 04:13:44;;;;;;;3.00;1.00;;;;;;;4.09;97.38;98714.30;105047;1274;71425;-77
2022/04/08 04:16:14;;;;;;;3.90;1.30;;;;;;;4.06;97.76;98726.04;104896;1274;73939;-82
2022/04/08 04:18:44;;;;;;;3.30;1.10;;;;;;;4.00;99.28;98743.36;105132;1267;151964;-72
2022/04/08 04:21:33;;;;;;;4.60;1.30;;;;;;;3.81;99.94;98790.81;105177;1273;61793;-74
2022/04/08 04:24:13;;;;;;;1.20;0.60;;;;;;;3.30;100.00;98778.40;104920;1274;75807;-74
2022/04/08 04:26:55;;;;;;;0.50;0.40;;;;;;;2.94;100.00;98792.69;105296;1264;141935;-74
2022/04/08 04:29:22;;;;;;;1.50;0.30;;;;;;;2.62;100.00;98817.41;104854;1274;74051;-76
2022/04/08 04:31:49;;;;;;;1.30;0.20;;;;;;;2.39;100.00;98827.45;104789;1276;61599;-77
2022/04/08 04:34:16;;;;;;;0.60;0.30;;;;;;;2.22;100.00;98841.04;104887;1274;61359;-77
2022/04/08 04:36:43;;;;;;;1.10;0.20;;;;;;;2.11;100.00;98843.77;104865;1274;75991;-74
2022/04/08 04:39:12;;;;;;;1.60;0.30;;;;;;;2.05;100.00;98833.37;104838;1276;71104;-80
2022/04/08 04:41:39;;;;;;;0.80;0.50;;;;;;;2.03;100.00;98835.02;104977;1274;72942;-75
2022/04/08 04:44:05;;;;;;;0.90;0.50;;;;;;;2.03;100.00;98841.48;104955;1276;62868;-75
2022/04/08 04:46:32;;;;;;;0.90;0.60;;;;;;;2.04;100.00;98845.17;104894;1274;61394;-77
2022/04/08 04:48:59;;;;;;;1.20;0.50;;;;;;;2.08;100.00;98850.58;104817;1274;75078;-76
2022/04/08 04:51:29;;;;;;;0.70;0.40;;;;;;;2.10;100.00;98854.00;104905;1275;71367;-80
2022/04/08 04:53:59;;;;;;;0.80;0.50;;;;;;;2.14;100.00;98853.25;104844;1275;74509;-75
2022/04/08 04:56:26;;;;;;;3.30;0.60;;;;;;;2.16;100.00;98864.00;104845;1274;61753;-75
2022/04/08 04:58:58;;;;;;;4.50;0.60;;;;;;;2.17;100.00;98869.83;104732;1276;61730;-74
2022/04/08 05:01:25;;;;;;;1.90;0.60;;;;;;;2.19;100.00;98874.09;104777;1276;76337;-75
2022/04/08 05:03:54;;;;;;;2.30;0.40;;;;;;;2.20;100.00;98873.95;104773;1276;71085;-76
2022/04/08 05:06:21;;;;;;;1.00;0.70;;;;;;;2.22;100.00;98882.45;104811;1275;72768;-75
2022/04/08 05:08:51;;;;;;;1.10;0.50;;;;;;;2.25;100.00;98886.55;104792;1274;61257;-75
2022/04/08 05:11:18;;;;;;;2.50;0.90;;;;;;;2.28;100.00;98885.16;104797;1275;61354;-75
2022/04/08 05:13:44;;;;;;;2.40;0.70;;;;;;;2.31;100.00;98887.98;104916;1274;74947;-75
2022/04/08 05:16:14;;;;;;;1.10;0.60;;;;;;;2.33;100.00;98890.91;104829;1274;71371;-75
2022/04/08 05:18:46;;;;;;;5.50;0.80;;;;;;;2.34;100.00;98890.77;104801;1275;72658;-76
2022/04/08 05:21:18;;;;;;;1.00;0.60;;;;;;;2.34;100.00;98886.55;104822;1276;61339;-77
2022/04/08 05:23:44;;;;;;;4.40;0.80;;;;;;;2.36;100.00;98891.48;104775;1276;61479;-75
2022/04/08 05:26:11;;;;;;;3.80;0.90;;;;;;;2.35;100.00;98892.96;104811;1276;74890;-74
2022/04/08 05:28:58;;;;;;;0.80;0.50;;;;;;;2.34;100.00;98890.48;104837;1276;71403;-80
2022/04/08 05:31:28;;;;;;;0.80;0.40;;;;;;;2.31;100.00;98897.92;104828;1276;74543;-73
2022/04/08 05:34:03;;;;;;;3.30;0.70;;;;;;;2.31;100.00;98901.25;104841;1276;61483;-74
2022/04/08 05:36:29;;;;;;;2.40;0.50;;;;;;;2.32;100.00;98902.16;104726;1276;61372;-77
2022/04/08 05:38:56;;;;;;;1.00;0.90;;;;;;;2.34;100.00;98909.09;104842;1277;74852;-74
2022/04/08 05:41:23;;;;;;;1.50;0.60;;;;;;;2.37;100.00;98910.66;104809;1276;71310;-79
2022/04/08 05:43:58;;;;;;;1.30;0.50;;;;;;;2.42;100.00;98916.22;104843;1277;74025;-81
2022/04/08 05:46:25;;;;;;;3.50;0.50;;;;;;;2.49;100.00;98920.82;104878;1276;61224;-76
2022/04/08 05:48:55;;;;;;;2.00;0.30;;;;;;;2.54;100.00;98931.89;104868;1276;61266;-80
2022/04/08 05:51:22;;;;;;;1.20;0.50;;;;;;;2.63;100.00;98934.07;104959;1276;74935;-77
2022/04/08 05:54:06;;;;;;;0.70;0.20;;;;;;;2.74;100.00;98941.02;104868;1276;72558;-78
2022/04/08 05:56:35;;;;;;;1.10;0.50;;;;;;;2.86;100.00;98947.30;104828;1276;73001;-82
2022/04/08 05:59:09;;;;;;;0.70;0.40;;;;;;;2.99;100.00;98947.78;104858;1276;62983;-80
2022/04/08 06:01:38;;;;;;;2.10;0.70;;;;;;;3.09;100.00;98951.77;104886;1276;62420;-80
2022/04/08 06:04:05;;;;;;;0.70;0.50;;;;;;;3.17;100.00;98960.98;104817;1276;77571;-81
2022/04/08 06:06:38;;;;;;;3.90;0.70;;;;;;;3.23;100.00;98957.02;104934;1276;71481;-80
2022/04/08 06:09:05;;;;;;;2.80;1.30;;;;;;;3.27;100.00;98970.70;105012;1276;72125;-75
2022/04/08 06:11:31;;;;;;;7.00;1.30;;;;;;;3.32;100.00;98974.16;104948;1277;61272;-82
2022/04/08 06:13:58;;;;;;;6.40;1.00;;;;;;;3.38;100.00;98971.43;105029;1276;61268;-80
2022/04/08 06:16:25;;;;;;;9.20;0.90;;;;;;;3.43;100.00;98968.08;105036;1276;74896;-79
2022/04/08 06:18:52;;;;;;;2.00;0.60;;;;;;;3.45;100.00;98976.35;104994;1276;71080;-77
2022/04/08 06:21:22;;;;;;;3.90;0.90;;;;;;;3.50;100.00;98966.88;104984;1276;71661;-80
2022/04/08 06:23:50;;;;;;;5.10;1.10;;;;;;;3.54;100.00;98974.90;104935;1278;61412;-84
2022/04/08 06:26:40;;;;;;;3.20;0.60;;;;;;;3.61;100.00;98977.36;105104;1276;62085;-79
2022/04/08 06:29:08;;;;;;;6.80;1.10;;;;;;;3.71;99.70;98976.33;105027;1276;74954;-81
2022/04/08 06:32:01;;;;;;;3.10;0.70;;;;;;;3.75;97.12;98991.64;104870;1277;72709;-80
2022/04/08 06:34:28;;;;;;;3.10;0.80;;;;;;;3.82;97.66;98988.35;104859;1276;73714;-82
2022/04/08 06:36:58;;;;;;;3.00;1.10;;;;;;;3.86;96.91;98994.88;104846;1276;62139;-83
2022/04/08 06:39:28;;;;;;;3.90;0.70;;;;;;;3.87;96.06;99001.05;104815;1279;61628;-78
2022/04/08 06:41:57;;;;;;;3.40;0.80;;;;;;;3.90;95.28;98986.60;104834;1276;76005;-80
2022/04/08 06:44:24;;;;;;;3.70;0.70;;;;;;;4.01;96.29;98989.11;104871;1276;72165;-77
2022/04/08 06:46:51;;;;;;;3.10;1.00;;;;;;;4.13;96.94;98990.80;104789;1276;73839;-78
2022/04/08 06:49:27;;;;;;;3.60;0.90;;;;;;;4.20;96.49;98993.80;104803;1276;61620;-78
2022/04/08 06:51:58;;;;;;;5.30;0.90;;;;;;;4.18;96.03;98998.26;104921;1276;61255;-77
2022/04/08 06:54:25;;;;;;;5.80;1.40;;;;;;;4.14;96.45;98995.19;104815;1277;76144;-74
2022/04/08 06:56:52;;;;;;;3.70;1.10;;;;;;;4.06;96.63;99007.23;104854;1276;71205;-78
2022/04/08 06:59:29;;;;;;;1.90;0.80;;;;;;;3.97;96.61;99008.04;104833;1276;71711;-81
2022/04/08 07:01:58;;;;;;;4.40;1.50;;;;;;;3.85;97.60;99013.02;104905;1279;62557;-77
2022/04/08 07:04:34;;;;;;;3.80;0.60;;;;;;;3.65;98.21;99017.33;104993;1276;61223;-77
2022/04/08 07:07:04;;;;;;;1.20;0.90;;;;;;;3.31;97.66;99008.36;104938;1276;76516;-73
2022/04/08 07:09:34;;;;;;;4.20;0.80;;;;;;;3.12;98.70;99006.74;104791;1277;72920;-73
2022/04/08 07:12:03;;;;;;;3.90;0.90;;;;;;;2.98;99.93;99004.44;104798;1276;73103;-78
2022/04/08 07:14:45;;;;;;;2.40;0.80;;;;;;;2.92;100.00;98995.48;104797;1277;61221;-77
2022/04/08 07:17:14;;;;;;;7.90;1.10;;;;;;;2.96;100.00;98995.95;104790;1276;61297;-73
2022/04/08 07:20:08;;;;;;;3.10;0.90;;;;;;;2.98;100.00;98999.91;104739;1276;76606;-77
2022/04/08 07:22:35;;;;;;;2.20;0.90;;;;;;;3.05;100.00;99000.03;104818;1276;73224;-77
2022/04/08 07:25:25;;;;;;;2.80;0.70;;;;;;;3.24;100.00;98995.02;104789;1276;72972;-77
2022/04/08 07:27:55;;;;;;;2.70;1.00;;;;;;;3.53;100.00;99005.35;104795;1276;62156;-77
2022/04/08 07:30:23;;;;;;;4.60;1.60;;;;;;;3.65;100.00;99011.19;104899;1276;61647;-80
2022/04/08 07:32:56;;;;;;;4.70;1.60;;;;;;;3.69;100.00;99010.77;104875;1277;73744;-77
2022/04/08 07:35:30;;;;;;;5.40;1.70;;;;;;;3.72;100.00;99005.26;104830;1277;71470;-78
2022/04/08 07:38:00;;;;;;;7.00;1.30;;;;;;;3.77;100.00;99011.66;104802;1275;72978;-73
2022/04/08 07:40:26;;;;;;;11.20;1.70;;;;;;;3.76;100.00;99008.98;104820;1277;61324;-76
2022/04/08 07:42:53;;;;;;;2.80;1.10;;;;;;;3.87;100.00;99007.66;104826;1277;61155;-79
2022/04/08 07:45:21;;;;;;;3.40;1.70;;;;;;;4.05;100.00;99003.02;104779;1275;74962;-76
2022/04/08 07:47:49;;;;;;;2.10;0.80;;;;;;;4.20;99.88;99005.71;104780;1276;71372;-75
2022/04/08 07:50:16;;;;;;;8.00;1.50;;;;;;;4.40;99.72;99000.92;104847;1276;72743;-73
2022/04/08 07:52:43;;;;;;;11.10;1.80;;;;;;;4.62;97.10;99009.98;104778;1277;61865;-78
2022/04/08 07:55:11;;;;;;;6.50;2.50;;;;;;;4.77;97.65;99007.57;104702;1276;61343;-80
2022/04/08 07:57:45;;;;;;;6.30;1.60;;;;;;;4.80;95.51;99014.00;104918;1276;76080;-76
2022/04/08 08:00:21;;;;;;;4.70;1.80;;;;;;;4.87;94.84;99010.78;104811;1276;72598;-73
2022/04/08 08:02:49;;;;;;;8.70;1.70;;;;;;;4.94;93.94;99016.10;104714;1276;72802;-73
2022/04/08 08:05:17;;;;;;;5.00;1.50;;;;;;;4.95;92.25;99017.11;104811;1276;61260;-75
2022/04/08 08:07:50;;;;;;;8.90;1.70;;;;;;;4.92;91.96;99025.30;104751;1276;61191;-80
2022/04/08 08:10:37;;;;;;;8.90;1.30;;;;;;;4.92;89.73;99019.88;104852;1276;75006;-77
2022/04/08 08:13:06;;;;;;;5.00;1.50;;;;;;;5.03;88.82;99031.16;104759;1276;71166;-77
2022/04/08 08:15:36;;;;;;;7.00;1.10;;;;;;;5.20;88.69;99032.84;104750;1276;72857;-75
2022/04/08 08:18:05;;;;;;;5.70;2.00;;;;;;;5.34;87.80;99028.95;104884;1277;62155;-76
2022/04/08 08:20:32;;;;;;;6.90;1.40;;;;;;;5.51;86.49;99030.26;104875;1277;61226;-78
2022/04/08 08:23:06;;;;;;;6.60;1.40;;;;;;;5.64;85.68;99028.65;104847;1276;74893;-79
2022/04/08 08:25:33;;;;;;;4.00;0.90;;;;;;;5.72;84.64;99030.31;104890;1277;71504;-77
2022/04/08 08:28:22;;;;;;;6.60;1.10;;;;;;;5.76;80.61;99029.18;104758;1276;72985;-77
2022/04/08 08:30:49;;;;;;;3.60;0.80;;;;;;;5.77;78.29;99021.88;104883;1276;61751;-75
2022/04/08 08:33:16;;;;;;;8.50;1.50;;;;;;;5.72;78.56;99032.26;104791;1276;61316;-78
2022/04/08 08:36:03;;;;;;;;;;;;;;;;;;;;;
2022/04/08 08:38:32;;;;;;;2.90;1.00;;;;;;;5.92;78.27;99026.88;104767;1277;72531;-76
2022/04/08 08:41:19;;;;;;;4.20;1.10;;;;;;;6.10;76.11;99028.39;104698;1277;73006;-74
2022/04/08 08:43:47;;;;;;;2.90;1.00;;;;;;;6.18;73.57;99033.84;104792;1276;62791;-74
2022/04/08 08:46:16;;;;;;;7.50;1.20;;;;;;;6.24;73.34;99032.36;104749;1277;61259;-80
2022/04/08 08:48:56;;;;;;;3.40;1.40;;;;;;;6.40;72.98;99032.43;104785;1277;73960;-73
2022/04/08 08:51:25;;;;;;;5.80;1.40;;;;;;;6.48;72.82;99025.73;104799;1276;71332;-75
2022/04/08 08:53:51;;;;;;;3.50;1.10;;;;;;;6.50;72.04;99022.35;104784;1277;73019;-74
2022/04/08 08:56:18;;;;;;;5.00;1.30;;;;;;;6.64;72.74;99027.84;104740;1276;61361;-73
2022/04/08 08:58:45;;;;;;;6.00;1.60;;;;;;;6.73;70.51;99031.33;104668;1277;61497;-74
2022/04/08 09:01:12;;;;;;;3.20;0.90;;;;;;;6.84;70.46;99016.63;104790;1276;76684;-77
2022/04/08 09:03:42;;;;;;;5.00;1.00;;;;;;;6.99;70.37;99010.03;104796;1277;72497;-74
2022/04/08 09:06:09;;;;;;;2.60;0.90;;;;;;;6.96;67.59;99028.06;104794;1277;73301;-76
2022/04/08 09:08:38;;;;;;;6.60;1.90;;;;;;;6.95;68.21;99010.73;104670;1277;61723;-75
2022/04/08 09:11:08;;;;;;;6.90;1.50;;;;;;;6.89;68.73;99016.21;104780;1277;61419;-67
2022/04/08 09:13:49;;;;;;;2.40;0.70;;;;;;;6.72;67.39;99034.57;104737;1276;74852;-72
2022/04/08 09:16:27;;;;;;;6.50;1.50;;;;;;;6.52;67.67;99025.41;104800;1276;72586;-72
2022/04/08 09:18:54;;;;;;;8.00;1.50;;;;;;;6.37;68.58;99023.38;104732;1277;72118;-69
2022/04/08 09:21:25;;;;;;;5.70;1.00;;;;;;;6.23;68.46;99029.10;104787;1277;61272;-69
2022/04/08 09:23:52;;;;;;;3.90;1.60;;;;;;;6.13;70.08;99023.50;104775;1277;61616;-70
2022/04/08 09:26:19;;;;;;;8.50;1.90;;;;;;;6.04;70.69;99031.48;104808;1276;75069;-71
2022/04/08 09:29:00;;;;;;;8.60;1.90;;;;;;;5.98;72.14;99028.16;104994;1277;71357;-76
2022/04/08 09:31:27;;;;;;;5.00;1.30;;;;;;;5.92;72.63;99032.10;104837;1277;74007;-77
2022/04/08 09:33:54;;;;;;;4.30;1.50;;;;;;;5.96;72.53;99036.98;104842;1277;61247;-73
2022/04/08 09:36:27;;;;;;;4.90;1.00;;;;;;;5.99;71.52;99033.05;104802;1277;61271;-73
2022/04/08 09:38:56;;;;;;;6.90;1.30;;;;;;;6.06;71.88;99026.44;104786;1277;74967;-74
2022/04/08 09:41:49;;;;;;;1.90;1.10;;;;;;;6.13;73.76;99027.20;104868;1277;72436;-74
2022/04/08 09:44:25;;;;;;;6.60;1.30;;;;;;;6.01;75.17;99027.15;104853;1277;72286;-76
2022/04/08 09:46:52;;;;;;;3.70;1.20;;;;;;;5.95;75.00;99021.41;104834;1277;61269;-74
2022/04/08 09:49:20;;;;;;;4.60;2.20;;;;;;;5.87;75.44;99013.16;104895;1277;61335;-72
2022/04/08 09:51:50;;;;;;;1.70;1.10;;;;;;;5.76;76.47;99015.51;104841;1277;75007;-80
2022/04/08 09:54:21;;;;;;;3.50;1.20;;;;;;;5.65;77.51;99013.04;104794;1277;71409;-76
2022/04/08 09:56:52;;;;;;;2.90;1.10;;;;;;;5.53;78.38;99020.66;104832;1278;73005;-76
2022/04/08 09:59:30;;;;;;;3.50;1.60;;;;;;;5.42;79.94;99019.06;104856;1278;61471;-75
2022/04/08 10:02:21;;;;;;;4.00;1.60;;;;;;;5.26;80.94;99022.33;104789;1277;62205;-81
2022/04/08 10:05:02;;;;;;;;;;;;;;;5.15;82.33;99029.18;104900;1278;74863;-82
2022/04/08 10:07:29;;;;;;;6.40;2.20;;;;;;;5.08;84.50;99030.14;104965;1277;71419;-76
2022/04/08 10:10:54;;;;;;;0.80;0.60;;;;;;;5.10;85.55;99024.86;104836;1276;72791;-76
2022/04/08 10:13:51;;;;;;;3.00;1.60;;;;;;;5.10;86.32;99019.00;104328;1283;62230;-77
2022/04/08 10:16:20;;;;;;;3.70;1.60;;;;;;;5.07;86.32;99018.80;104422;1282;61259;-77
2022/04/08 10:19:08;;;;;;;6.40;1.90;;;;;;;5.11;86.29;99010.27;104770;1277;75717;-75
2022/04/08 10:21:41;;;;;;;6.50;2.00;;;;;;;5.19;85.32;99001.05;104821;1277;71422;-77
2022/04/08 10:24:13;;;;;;;5.40;2.40;;;;;;;5.29;84.38;98994.06;105029;1277;73633;-77
2022/04/08 10:27:01;;;;;;;5.50;2.10;;;;;;;5.41;83.95;98997.21;104785;1277;62492;-79
2022/04/08 10:29:28;;;;;;;6.10;1.50;;;;;;;5.49;82.80;98989.91;104766;1278;61762;-80
2022/04/08 10:32:03;;;;;;;4.30;2.50;;;;;;;5.51;82.10;98986.85;104770;1278;75963;-78
2022/04/08 10:34:35;;;;;;;8.40;2.60;;;;;;;5.52;80.91;98990.51;104788;1277;73031;-74
2022/04/08 10:37:15;;;;;;;3.80;1.40;;;;;;;5.51;79.56;98989.92;104695;1277;74046;-78
2022/04/08 10:39:55;;;;;;;3.60;1.10;;;;;;;5.45;78.11;98993.23;104755;1277;62435;-76
2022/04/08 10:42:23;;;;;;;7.20;1.80;;;;;;;5.40;77.07;98982.25;104827;1276;61419;-76
2022/04/08 10:44:50;;;;;;;7.70;2.00;;;;;;;5.37;77.97;98985.13;104808;1277;76160;-79
2022/04/08 10:47:21;;;;;;;2.70;1.20;;;;;;;5.33;78.17;98987.32;104807;1276;72368;-78
2022/04/08 10:49:53;;;;;;;5.70;1.10;;;;;;;5.29;78.52;98985.95;104744;1277;73972;-76
2022/04/08 10:52:25;;;;;;;6.30;1.70;;;;;;;5.27;78.62;98977.25;104826;1277;61266;-75
2022/04/08 10:55:08;;;;;;;5.30;2.50;;;;;;;5.26;79.04;98979.31;104986;1277;61249;-75
2022/04/08 10:57:42;;;;;;;4.10;1.90;;;;;;;5.33;79.94;98978.05;104876;1277;75110;-74
2022/04/08 11:00:14;;;;;;;7.90;2.00;;;;;;;5.44;79.87;98977.73;104870;1277;70649;-74
2022/04/08 11:02:46;;;;;;;5.00;1.30;;;;;;;5.68;79.63;98975.88;104909;1277;73727;-74
2022/04/08 11:05:15;;;;;;;5.80;1.90;;;;;;;5.94;76.98;98969.80;104782;1277;61478;-73
2022/04/08 11:07:47;;;;;;;6.30;1.90;;;;;;;6.21;76.13;98965.83;104852;1277;61680;-73
2022/04/08 11:10:20;;;;;;;4.60;2.10;;;;;;;6.55;76.06;98955.45;104852;1276;74938;-72
2022/04/08 11:12:49;;;;;;;10.20;1.90;;;;;;;6.88;74.35;98954.61;104754;1277;71363;-73
2022/04/08 11:15:18;;;;;;;3.00;1.20;;;;;;;7.19;72.52;98947.42;104856;1277;73113;-75
2022/04/08 11:17:50;;;;;;;4.70;1.90;;;;;;;7.49;70.90;98949.41;104857;1277;62321;-75
2022/04/08 11:20:19;;;;;;;5.50;1.70;;;;;;;7.76;69.39;98943.57;104875;1277;61225;-74
2022/04/08 11:22:48;;;;;;;4.40;1.50;;;;;;;7.94;67.32;98944.36;104691;1277;74899;-73
2022/04/08 11:25:30;;;;;;;4.50;1.80;;;;;;;7.97;65.68;98940.19;104732;1277;71494;-76
2022/04/08 11:27:57;;;;;;;2.10;1.20;;;;;;;8.02;67.12;98935.80;104821;1277;74116;-73
2022/04/08 11:30:29;;;;;;;3.80;1.50;;;;;;;8.06;66.72;98942.03;104790;1277;63438;-74
2022/04/08 11:32:57;;;;;;;4.80;1.10;;;;;;;8.18;66.13;98937.61;104796;1277;61385;-73
2022/04/08 11:35:31;;;;;;;4.70;1.60;;;;;;;8.31;64.32;98935.42;104826;1277;73815;-73
2022/04/08 11:37:58;;;;;;;6.80;2.10;;;;;;;8.44;64.85;98935.24;104726;1277;71622;-71
2022/04/08 11:40:25;;;;;;;4.50;1.40;;;;;;;8.55;64.46;98932.73;104921;1276;73938;-72
2022/04/08 11:42:56;;;;;;;2.70;1.20;;;;;;;8.66;64.01;98932.34;104749;1277;61369;-75
2022/04/08 11:45:23;;;;;;;5.20;1.30;;;;;;;8.69;62.83;98934.90;104835;1277;61374;-75
2022/04/08 11:47:50;;;;;;;3.90;1.80;;;;;;;8.63;62.63;98932.95;104737;1276;75727;-72